createdAt,value
2022-12-22T00:02:00.200Z,15.00
2022-12-22T00:04:46.155Z,15.00
2022-12-22T00:07:31.762Z,15.00
2022-12-22T00:10:17.797Z,15.00
2022-12-22T00:13:04.920Z,14.90
2022-12-22T00:15:53.646Z,15.00
2022-12-22T00:18:39.313Z,14.90
2022-12-22T00:21:25.080Z,14.90
2022-12-22T00:24:10.523Z,15.00
2022-12-22T00:26:56.566Z,14.90
2022-12-22T00:29:43.778Z,14.90
2022-12-22T00:32:32.715Z,14.90
2022-12-22T00:35:18.912Z,14.90
2022-12-22T00:38:04.846Z,14.90
2022-12-22T00:40:50.710Z,14.90
2022-12-22T00:43:36.027Z,14.90
2022-12-22T00:46:23.467Z,14.90
2022-12-22T00:49:10.043Z,14.90
2022-12-22T00:51:55.870Z,14.90
2022-12-22T00:54:42.120Z,14.90
2022-12-22T00:57:34.148Z,14.90
2022-12-22T01:00:20.548Z,14.90
2022-12-22T01:03:07.812Z,14.90
2022-12-22T01:05:54.024Z,14.90
2022-12-22T01:08:39.494Z,14.90
2022-12-22T01:11:26.028Z,14.90
2022-12-22T01:14:11.783Z,14.90
2022-12-22T01:16:57.374Z,14.90
2022-12-22T01:19:44.452Z,14.90
2022-12-22T01:22:30.771Z,14.80
2022-12-22T01:25:16.264Z,14.80
2022-12-22T01:28:01.679Z,14.80
2022-12-22T01:30:47.278Z,14.80
2022-12-22T01:33:33.017Z,14.80
2022-12-22T01:36:20.229Z,14.80
2022-12-22T01:39:06.007Z,14.80
2022-12-22T01:41:51.733Z,14.80
2022-12-22T01:44:37.830Z,14.80
2022-12-22T01:47:59.941Z,14.70
2022-12-22T01:50:50.631Z,14.70
2022-12-22T01:53:41.946Z,14.70
2022-12-22T01:56:28.432Z,14.70
2022-12-22T01:59:17.632Z,14.70
2022-12-22T02:02:03.941Z,14.70
2022-12-22T02:04:53.798Z,14.70
2022-12-22T02:07:56.619Z,14.70
2022-12-22T02:11:00.452Z,14.70
2022-12-22T02:13:54.177Z,14.70
2022-12-22T02:16:49.254Z,14.70
2022-12-22T02:19:52.920Z,14.70
2022-12-22T02:22:46.692Z,14.70
2022-12-22T02:25:37.865Z,14.70
2022-12-22T02:28:25.501Z,14.70
2022-12-22T02:31:12.199Z,14.70
2022-12-22T02:33:58.146Z,14.70
2022-12-22T02:36:51.268Z,14.70
2022-12-22T02:39:44.302Z,14.70
2022-12-22T02:42:37.525Z,14.60
2022-12-22T02:45:34.184Z,14.70
2022-12-22T02:48:24.955Z,14.60
2022-12-22T02:51:14.338Z,14.60
2022-12-22T02:54:00.242Z,14.60
2022-12-22T02:56:46.419Z,14.60
2022-12-22T02:59:32.060Z,14.60
2022-12-22T03:02:19.583Z,14.60
2022-12-22T03:05:05.125Z,14.60
2022-12-22T03:07:50.657Z,14.60
2022-12-22T03:10:36.647Z,14.60
2022-12-22T03:13:22.108Z,14.60
2022-12-22T03:16:08.107Z,14.60
2022-12-22T03:18:54.939Z,14.60
2022-12-22T03:21:40.665Z,14.60
2022-12-22T03:24:26.774Z,14.60
2022-12-22T03:26:55.794Z,14.70
2022-12-22T03:29:24.225Z,14.60
2022-12-22T03:31:52.600Z,14.60
2022-12-22T03:34:22.411Z,14.60
2022-12-22T03:36:50.737Z,14.60
2022-12-22T03:39:19.108Z,14.60
2022-12-22T03:42:04.726Z,14.60
2022-12-22T03:44:50.451Z,14.70
2022-12-22T03:47:18.796Z,14.70
2022-12-22T03:49:48.588Z,14.60
2022-12-22T03:52:16.948Z,14.70
2022-12-22T03:54:45.251Z,14.60
2022-12-22T03:57:13.507Z,14.60
2022-12-22T03:59:42.028Z,14.60
2022-12-22T04:02:10.414Z,14.70
2022-12-22T04:04:38.813Z,14.60
2022-12-22T04:07:08.532Z,14.60
2022-12-22T04:09:56.815Z,14.60
2022-12-22T04:12:42.767Z,14.60
2022-12-22T04:15:11.874Z,14.60
2022-12-22T04:17:40.248Z,14.60
2022-12-22T04:20:09.751Z,14.60
2022-12-22T04:22:39.460Z,14.60
2022-12-22T04:25:08.905Z,14.60
2022-12-22T04:27:37.181Z,14.60
2022-12-22T04:30:06.540Z,14.60
2022-12-22T04:32:34.960Z,14.60
2022-12-22T04:35:03.312Z,14.60
2022-12-22T04:37:31.625Z,14.60
2022-12-22T04:40:01.790Z,14.60
2022-12-22T04:42:30.212Z,14.60
2022-12-22T04:44:58.543Z,14.60
2022-12-22T04:47:26.843Z,14.60
2022-12-22T04:49:55.861Z,14.60
2022-12-22T04:52:24.250Z,14.60
2022-12-22T04:54:52.611Z,14.60
2022-12-22T04:57:22.605Z,14.60
2022-12-22T04:59:50.912Z,14.60
2022-12-22T05:02:19.331Z,14.50
2022-12-22T05:04:47.653Z,14.60
2022-12-22T05:07:16.004Z,14.50
2022-12-22T05:09:44.412Z,14.50
2022-12-22T05:12:30.147Z,14.50
2022-12-22T05:14:59.905Z,14.50
2022-12-22T05:17:28.216Z,14.50
2022-12-22T05:19:56.491Z,14.60
2022-12-22T05:22:24.818Z,14.50
2022-12-22T05:24:53.093Z,14.60
2022-12-22T05:27:21.499Z,14.60
2022-12-22T05:29:49.835Z,14.60
2022-12-22T05:32:19.571Z,14.60
2022-12-22T05:34:47.885Z,14.60
2022-12-22T05:37:16.195Z,14.50
2022-12-22T05:39:44.539Z,14.50
2022-12-22T05:42:12.816Z,14.50
2022-12-22T05:44:41.088Z,14.60
2022-12-22T05:47:09.580Z,14.50
2022-12-22T05:49:39.690Z,14.50
2022-12-22T05:52:07.935Z,14.50
2022-12-22T05:54:36.298Z,14.50
2022-12-22T05:57:04.751Z,14.60
2022-12-22T05:59:33.027Z,14.50
2022-12-22T06:02:01.495Z,14.50
2022-12-22T06:04:30.073Z,14.50
2022-12-22T06:06:59.874Z,14.50
2022-12-22T06:09:28.141Z,14.50
2022-12-22T06:11:56.463Z,14.50
2022-12-22T06:14:24.855Z,14.50
2022-12-22T06:16:53.211Z,14.50
2022-12-22T06:19:21.586Z,14.60
2022-12-22T06:21:49.941Z,14.50
2022-12-22T06:24:19.673Z,14.50
2022-12-22T06:26:48.071Z,14.50
2022-12-22T06:29:16.444Z,14.60
2022-12-22T06:31:44.847Z,14.50
2022-12-22T06:34:13.642Z,14.50
2022-12-22T06:36:41.964Z,14.50
2022-12-22T06:39:10.279Z,14.50
2022-12-22T06:41:57.291Z,14.50
2022-12-22T06:44:25.700Z,14.60
2022-12-22T06:46:54.335Z,14.60
2022-12-22T06:49:23.228Z,14.60
2022-12-22T06:51:51.534Z,14.60
2022-12-22T06:54:25.905Z,14.60
2022-12-22T06:56:56.046Z,14.60
2022-12-22T06:59:24.316Z,14.60
2022-12-22T07:01:52.633Z,14.60
2022-12-22T07:04:21.676Z,14.60
2022-12-22T07:06:49.975Z,14.60
2022-12-22T07:09:18.271Z,14.60
2022-12-22T07:11:46.599Z,14.60
2022-12-22T07:14:16.457Z,14.60
2022-12-22T07:16:45.861Z,14.60
2022-12-22T07:19:14.242Z,14.70
2022-12-22T07:21:42.634Z,14.60
2022-12-22T07:24:11.171Z,14.60
2022-12-22T07:26:39.651Z,14.60
2022-12-22T07:29:07.960Z,14.60
2022-12-22T07:31:37.911Z,14.60
2022-12-22T07:34:06.443Z,14.70
2022-12-22T07:36:34.858Z,14.60
2022-12-22T07:39:03.268Z,14.60
2022-12-22T07:41:48.586Z,14.70
2022-12-22T07:44:16.883Z,14.70
2022-12-22T07:46:46.937Z,14.70
2022-12-22T07:49:32.533Z,14.70
2022-12-22T07:52:01.464Z,14.70
2022-12-22T07:54:30.313Z,14.70
2022-12-22T07:56:58.735Z,14.70
2022-12-22T07:59:27.114Z,14.70
2022-12-22T08:01:57.033Z,14.70
2022-12-22T08:04:25.579Z,14.70
2022-12-22T08:06:53.871Z,14.70
2022-12-22T08:09:23.123Z,14.70
2022-12-22T08:11:51.500Z,14.70
2022-12-22T08:14:19.763Z,14.70
2022-12-22T08:16:48.263Z,14.80
2022-12-22T08:19:17.949Z,14.80
2022-12-22T08:21:52.414Z,14.80
2022-12-22T08:24:21.671Z,14.80
2022-12-22T08:26:54.716Z,14.80
2022-12-22T08:29:26.725Z,14.80
2022-12-22T08:31:56.007Z,14.80
2022-12-22T08:34:25.876Z,14.80
2022-12-22T08:36:59.480Z,14.80
2022-12-22T08:39:29.815Z,14.80
2022-12-22T08:41:58.895Z,14.80
2022-12-22T08:44:29.122Z,14.80
2022-12-22T08:46:59.076Z,14.80
2022-12-22T08:49:29.271Z,14.80
2022-12-22T08:51:57.617Z,14.80
2022-12-22T08:54:25.861Z,14.80
2022-12-22T08:56:54.322Z,14.80
2022-12-22T08:59:22.575Z,14.80
2022-12-22T09:01:51.502Z,14.80
2022-12-22T09:04:21.905Z,14.80
2022-12-22T09:06:53.152Z,14.80
2022-12-22T09:09:22.082Z,14.80
2022-12-22T09:11:50.380Z,14.80
2022-12-22T09:14:18.984Z,14.80
2022-12-22T09:16:47.465Z,14.80
2022-12-22T09:19:15.851Z,14.80
2022-12-22T09:21:45.146Z,14.80
2022-12-22T09:24:16.427Z,14.80
2022-12-22T09:26:44.881Z,14.80
2022-12-22T09:29:15.602Z,14.80
2022-12-22T09:31:44.578Z,14.90
2022-12-22T09:34:17.586Z,14.90
2022-12-22T09:36:47.090Z,14.90
2022-12-22T09:39:17.110Z,14.90
2022-12-22T09:41:47.787Z,14.90
2022-12-22T09:44:22.582Z,14.90
2022-12-22T09:46:52.119Z,14.80
2022-12-22T09:49:21.025Z,14.90
2022-12-22T09:51:52.763Z,14.90
2022-12-22T09:54:23.714Z,14.90
2022-12-22T09:56:52.019Z,14.90
2022-12-22T09:59:21.998Z,14.90
2022-12-22T10:02:07.331Z,14.90
2022-12-22T10:04:57.499Z,14.80
2022-12-22T10:07:31.314Z,14.90
2022-12-22T10:10:07.261Z,14.80
2022-12-22T10:12:35.695Z,14.90
2022-12-22T10:15:04.206Z,14.90
2022-12-22T10:17:34.476Z,14.90
2022-12-22T10:20:22.426Z,14.90
2022-12-22T10:22:53.063Z,14.90
2022-12-22T10:25:52.510Z,14.90
2022-12-22T10:28:23.644Z,14.90
2022-12-22T10:31:09.978Z,14.90
2022-12-22T10:33:45.858Z,14.90
2022-12-22T10:36:16.071Z,14.90
2022-12-22T10:39:00.246Z,14.90
2022-12-22T10:41:32.477Z,14.90
2022-12-22T10:44:02.910Z,15.00
2022-12-22T10:46:35.425Z,15.00
2022-12-22T10:49:20.642Z,15.10
2022-12-22T10:51:51.845Z,15.20
2022-12-22T10:54:28.933Z,15.30
2022-12-22T10:57:26.553Z,15.30
2022-12-22T10:59:57.008Z,15.30
2022-12-22T11:02:33.180Z,15.40
2022-12-22T11:05:07.922Z,15.40
2022-12-22T11:07:38.255Z,15.40
2022-12-22T11:10:18.083Z,15.40
2022-12-22T11:13:00.428Z,15.40
2022-12-22T11:15:35.320Z,15.40
2022-12-22T11:18:11.871Z,15.40
2022-12-22T11:20:52.468Z,15.40
2022-12-22T11:23:27.911Z,15.40
2022-12-22T11:26:10.279Z,15.40
2022-12-22T11:29:07.095Z,15.30
2022-12-22T11:31:49.567Z,15.30
2022-12-22T11:34:37.556Z,15.30
2022-12-22T11:37:24.483Z,15.30
2022-12-22T11:39:59.756Z,15.30
2022-12-22T11:42:46.646Z,15.30
2022-12-22T11:45:42.727Z,15.30
2022-12-22T11:48:26.999Z,15.30
2022-12-22T11:51:08.078Z,15.30
2022-12-22T11:54:16.828Z,15.30
2022-12-22T11:56:48.569Z,15.30
2022-12-22T11:59:37.663Z,15.30
2022-12-22T12:02:34.458Z,15.30
2022-12-22T12:05:21.964Z,15.30
2022-12-22T12:07:55.631Z,15.30
2022-12-22T12:10:28.206Z,15.30
2022-12-22T12:13:05.530Z,15.30
2022-12-22T12:15:55.715Z,15.20
2022-12-22T12:18:51.483Z,15.30
2022-12-22T12:21:47.532Z,15.30
2022-12-22T12:24:44.669Z,15.30
2022-12-22T12:27:32.956Z,15.30
2022-12-22T12:30:37.120Z,15.20
2022-12-22T12:32:59.493Z,15.30
2022-12-22T12:35:40.211Z,15.30
2022-12-22T12:38:39.528Z,15.30
2022-12-22T12:41:11.297Z,15.30
2022-12-22T12:43:43.299Z,15.30
2022-12-22T12:46:45.897Z,15.30
2022-12-22T12:49:51.655Z,15.30
2022-12-22T12:53:14.832Z,15.30
2022-12-22T12:56:03.748Z,15.30
2022-12-22T12:58:54.608Z,15.30
2022-12-22T13:01:58.715Z,15.30
2022-12-22T13:05:10.672Z,15.30
2022-12-22T13:08:14.428Z,15.30
2022-12-22T13:10:46.459Z,15.30
2022-12-22T13:13:53.550Z,15.30
2022-12-22T13:16:42.596Z,15.30
2022-12-22T13:19:24.417Z,15.30
2022-12-22T13:21:57.947Z,15.30
2022-12-22T13:24:32.135Z,15.30
2022-12-22T13:27:07.245Z,15.30
2022-12-22T13:29:45.566Z,15.30
2022-12-22T13:32:22.040Z,15.30
2022-12-22T13:35:29.803Z,15.30
2022-12-22T13:37:48.848Z,15.30
2022-12-22T13:40:22.439Z,15.30
2022-12-22T13:42:54.183Z,15.40
2022-12-22T13:45:30.479Z,15.40
2022-12-22T13:48:01.764Z,15.30
2022-12-22T13:50:34.723Z,15.30
2022-12-22T13:53:05.100Z,15.30
2022-12-22T13:55:36.508Z,15.40
2022-12-22T13:58:09.342Z,15.40
2022-12-22T14:00:38.159Z,15.40
2022-12-22T14:03:27.776Z,15.40
2022-12-22T14:06:03.685Z,15.40
2022-12-22T14:08:31.938Z,15.40
2022-12-22T14:11:01.650Z,15.40
2022-12-22T14:13:33.620Z,15.40
2022-12-22T14:16:03.140Z,15.40
2022-12-22T14:18:33.977Z,15.40
2022-12-22T14:21:03.001Z,15.40
2022-12-22T14:23:34.376Z,15.40
2022-12-22T14:26:07.211Z,15.40
2022-12-22T14:28:50.379Z,15.40
2022-12-22T14:31:19.569Z,15.40
2022-12-22T14:33:55.692Z,15.40
2022-12-22T14:36:26.011Z,15.40
2022-12-22T14:38:56.045Z,15.40
2022-12-22T14:41:44.361Z,15.50
2022-12-22T14:44:17.780Z,15.40
2022-12-22T14:46:49.833Z,15.50
2022-12-22T14:49:20.705Z,15.50
2022-12-22T14:52:01.031Z,15.40
2022-12-22T14:54:30.074Z,15.40
2022-12-22T14:57:10.102Z,15.40
2022-12-22T14:59:58.530Z,15.40
2022-12-22T15:02:36.657Z,15.40
2022-12-22T15:05:14.612Z,15.40
2022-12-22T15:08:05.264Z,15.40
2022-12-22T15:10:42.419Z,15.40
2022-12-22T15:13:20.077Z,15.40
2022-12-22T15:15:48.478Z,15.40
2022-12-22T15:18:17.057Z,15.40
2022-12-22T15:20:45.671Z,15.40
2022-12-22T15:23:17.318Z,15.40
2022-12-22T15:25:46.595Z,15.30
2022-12-22T15:28:16.387Z,15.30
2022-12-22T15:30:44.856Z,15.30
2022-12-22T15:33:14.789Z,15.30
2022-12-22T15:35:44.860Z,15.40
2022-12-22T15:38:15.423Z,15.30
2022-12-22T15:40:44.216Z,15.30
2022-12-22T15:43:36.723Z,15.30
2022-12-22T15:46:04.179Z,15.30
2022-12-22T15:48:35.711Z,15.40
2022-12-22T15:51:05.957Z,15.30
2022-12-22T15:53:36.051Z,15.30
2022-12-22T15:56:04.945Z,15.30
2022-12-22T15:58:36.641Z,15.40
2022-12-22T16:01:06.610Z,15.30
2022-12-22T16:03:35.133Z,15.30
2022-12-22T16:06:03.530Z,15.30
2022-12-22T16:08:34.345Z,15.40
2022-12-22T16:11:02.569Z,15.30
2022-12-22T16:13:31.104Z,15.40
2022-12-22T16:16:00.074Z,15.30
2022-12-22T16:18:30.047Z,15.40
2022-12-22T16:21:02.104Z,15.40
2022-12-22T16:23:30.793Z,15.30
2022-12-22T16:26:02.467Z,15.30
2022-12-22T16:28:33.197Z,15.40
2022-12-22T16:31:02.509Z,15.30
2022-12-22T16:33:32.284Z,15.30
2022-12-22T16:36:01.324Z,15.30
2022-12-22T16:38:29.696Z,15.30
2022-12-22T16:40:58.046Z,15.30
2022-12-22T16:43:49.886Z,15.30
2022-12-22T16:46:19.955Z,15.30
2022-12-22T16:48:51.871Z,15.30
2022-12-22T16:51:24.451Z,15.30
2022-12-22T16:53:53.024Z,15.30
2022-12-22T16:56:23.404Z,15.30
2022-12-22T16:58:51.678Z,15.30
2022-12-22T17:01:31.130Z,15.30
2022-12-22T17:04:05.424Z,15.30
2022-12-22T17:06:34.232Z,15.30
2022-12-22T17:09:04.352Z,15.30
2022-12-22T17:11:34.493Z,15.30
2022-12-22T17:14:08.050Z,15.30
2022-12-22T17:16:36.610Z,15.40
2022-12-22T17:19:07.544Z,15.30
2022-12-22T17:21:35.906Z,15.30
2022-12-22T17:24:04.789Z,15.30
2022-12-22T17:26:35.559Z,15.30
2022-12-22T17:29:04.116Z,15.30
2022-12-22T17:31:32.404Z,15.30
2022-12-22T17:34:00.679Z,15.30
2022-12-22T17:36:34.418Z,15.30
2022-12-22T17:39:03.689Z,15.30
2022-12-22T17:41:32.229Z,15.30
2022-12-22T17:44:00.548Z,15.30
2022-12-22T17:46:29.033Z,15.30
2022-12-22T17:48:57.472Z,15.30
2022-12-22T17:51:28.544Z,15.20
2022-12-22T17:53:59.514Z,15.30
2022-12-22T17:56:30.236Z,15.30
2022-12-22T17:58:58.770Z,15.30
2022-12-22T18:01:29.551Z,15.30
2022-12-22T18:03:59.040Z,15.30
2022-12-22T18:06:30.896Z,15.20
2022-12-22T18:09:01.240Z,15.20
2022-12-22T18:11:29.953Z,15.30
2022-12-22T18:14:01.088Z,15.30
2022-12-22T18:16:30.067Z,15.30
2022-12-22T18:18:58.428Z,15.30
2022-12-22T18:21:26.992Z,15.30
2022-12-22T18:23:55.438Z,15.30
2022-12-22T18:26:27.312Z,15.30
2022-12-22T18:28:56.207Z,15.30
2022-12-22T18:31:25.527Z,15.30
2022-12-22T18:33:54.415Z,15.30
2022-12-22T18:36:28.799Z,15.30
2022-12-22T18:38:58.371Z,15.30
2022-12-22T18:41:30.703Z,15.30
2022-12-22T18:43:59.067Z,15.30
2022-12-22T18:46:27.567Z,15.30
2022-12-22T18:49:00.509Z,15.30
2022-12-22T18:51:30.263Z,15.30
2022-12-22T18:53:58.802Z,15.40
2022-12-22T18:56:28.675Z,15.30
2022-12-22T18:58:57.049Z,15.30
2022-12-22T19:01:27.253Z,15.40
2022-12-22T19:03:58.986Z,15.40
2022-12-22T19:06:27.661Z,15.40
2022-12-22T19:08:55.936Z,15.40
2022-12-22T19:11:28.859Z,15.40
2022-12-22T19:13:57.304Z,15.40
2022-12-22T19:16:28.070Z,15.40
2022-12-22T19:18:57.975Z,15.50
2022-12-22T19:21:26.626Z,15.40
2022-12-22T19:23:55.038Z,15.40
2022-12-22T19:26:25.458Z,15.40
2022-12-22T19:28:57.299Z,15.50
2022-12-22T19:31:28.432Z,15.50
2022-12-22T19:33:59.078Z,15.50
2022-12-22T19:36:29.882Z,15.40
2022-12-22T19:39:05.626Z,15.50
2022-12-22T19:41:40.242Z,15.50
2022-12-22T19:44:19.848Z,15.50
2022-12-22T19:46:49.067Z,15.50
2022-12-22T19:49:18.888Z,15.50
2022-12-22T19:51:47.595Z,15.50
2022-12-22T19:54:16.760Z,15.50
2022-12-22T19:56:48.702Z,15.50
2022-12-22T19:59:28.157Z,15.50
2022-12-22T20:01:58.601Z,15.50
2022-12-22T20:04:27.267Z,15.50
2022-12-22T20:06:55.609Z,15.50
2022-12-22T20:09:23.967Z,15.50
2022-12-22T20:11:52.339Z,15.50
2022-12-22T20:14:22.036Z,15.50
2022-12-22T20:16:50.432Z,15.50
2022-12-22T20:19:18.724Z,15.50
2022-12-22T20:21:47.101Z,15.50
2022-12-22T20:24:22.774Z,15.50
2022-12-22T20:26:54.434Z,15.50
2022-12-22T20:29:25.975Z,15.50
2022-12-22T20:31:54.336Z,15.50
2022-12-22T20:34:22.855Z,15.50
2022-12-22T20:36:51.282Z,15.50
2022-12-22T20:39:20.692Z,15.50
2022-12-22T20:41:53.291Z,15.50
2022-12-22T20:44:28.321Z,15.50
2022-12-22T20:46:56.659Z,15.50
2022-12-22T20:49:24.931Z,15.50
2022-12-22T20:51:53.307Z,15.50
2022-12-22T20:54:21.786Z,15.50
2022-12-22T20:56:51.428Z,15.50
2022-12-22T20:59:22.369Z,15.50
2022-12-22T21:01:53.523Z,15.50
2022-12-22T21:04:22.371Z,15.50
2022-12-22T21:06:52.593Z,15.50
2022-12-22T21:09:24.392Z,15.50
2022-12-22T21:11:52.693Z,15.50
2022-12-22T21:14:21.010Z,15.50
2022-12-22T21:16:51.793Z,15.40
2022-12-22T21:19:20.565Z,15.50
2022-12-22T21:21:49.475Z,15.50
2022-12-22T21:24:18.820Z,15.50
2022-12-22T21:26:50.484Z,15.50
2022-12-22T21:29:23.048Z,15.50
2022-12-22T21:31:53.233Z,15.50
2022-12-22T21:34:22.067Z,15.50
2022-12-22T21:36:55.593Z,15.50
2022-12-22T21:39:30.410Z,15.50
2022-12-22T21:42:01.878Z,15.50
2022-12-22T21:44:30.879Z,15.50
2022-12-22T21:47:01.181Z,15.50
2022-12-22T21:49:31.644Z,15.50
2022-12-22T21:52:00.416Z,15.40
2022-12-22T21:54:29.674Z,15.50
2022-12-22T21:56:58.098Z,15.50
2022-12-22T21:59:27.263Z,15.50
2022-12-22T22:01:56.640Z,15.50
2022-12-22T22:04:27.526Z,15.50
2022-12-22T22:06:55.852Z,15.50
2022-12-22T22:09:24.125Z,15.50
2022-12-22T22:12:09.712Z,15.50
2022-12-22T22:14:38.070Z,15.50
2022-12-22T22:17:06.382Z,15.50
2022-12-22T22:19:36.321Z,15.50
2022-12-22T22:22:05.130Z,15.50
2022-12-22T22:24:33.776Z,15.50
2022-12-22T22:27:02.716Z,15.50
2022-12-22T22:29:31.044Z,15.50
2022-12-22T22:31:59.417Z,15.50
2022-12-22T22:34:27.767Z,15.50
2022-12-22T22:36:57.421Z,15.50
2022-12-22T22:39:26.007Z,15.40
2022-12-22T22:41:54.598Z,15.50
2022-12-22T22:44:23.516Z,15.40
2022-12-22T22:46:51.899Z,15.50
2022-12-22T22:49:26.230Z,15.50
2022-12-22T22:51:58.003Z,15.50
2022-12-22T22:54:26.733Z,15.50
2022-12-22T22:56:55.115Z,15.50
2022-12-22T22:59:23.556Z,15.50
2022-12-22T23:01:51.892Z,15.50
2022-12-22T23:04:20.405Z,15.50
2022-12-22T23:06:49.167Z,15.50
2022-12-22T23:09:19.139Z,15.50
2022-12-22T23:11:47.545Z,15.50
2022-12-22T23:14:15.860Z,15.50
2022-12-22T23:16:44.164Z,15.50
2022-12-22T23:19:12.622Z,15.50
2022-12-22T23:21:40.967Z,15.50
2022-12-22T23:24:10.141Z,15.50
2022-12-22T23:26:40.034Z,15.50
2022-12-22T23:29:08.466Z,15.50
2022-12-22T23:31:37.634Z,15.50
2022-12-22T23:34:06.396Z,15.50
2022-12-22T23:36:34.909Z,15.50
2022-12-22T23:39:03.201Z,15.50
2022-12-22T23:41:31.535Z,15.50
2022-12-22T23:44:01.224Z,15.50
2022-12-22T23:46:29.739Z,15.50
2022-12-22T23:48:59.425Z,15.50
2022-12-22T23:51:29.289Z,15.50
2022-12-22T23:53:59.258Z,15.50
2022-12-22T23:56:27.712Z,15.50
2022-12-22T23:58:56.104Z,15.50
